sensor_id;sensor_type;location;lat;lon;timestamp;temperature;humidity
67188;DHT22;54117;53.532;49.426;2022-08-21T00:02:27;17.10;67.50
67188;DHT22;54117;53.532;49.426;2022-08-21T00:04:53;17.10;67.40
67188;DHT22;54117;53.532;49.426;2022-08-21T00:07:20;17.10;67.20
67188;DHT22;54117;53.532;49.426;2022-08-21T00:09:47;17.20;67.10
67188;DHT22;54117;53.532;49.426;2022-08-21T00:12:13;17.20;67.20
67188;DHT22;54117;53.532;49.426;2022-08-21T00:14:40;17.20;67.40
67188;DHT22;54117;53.532;49.426;2022-08-21T00:17:06;17.20;67.50
67188;DHT22;54117;53.532;49.426;2022-08-21T00:19:33;17.30;67.30
67188;DHT22;54117;53.532;49.426;2022-08-21T00:21:59;17.20;67.00
67188;DHT22;54117;53.532;49.426;2022-08-21T00:24:25;17.30;66.80
67188;DHT22;54117;53.532;49.426;2022-08-21T00:26:52;17.30;66.50
67188;DHT22;54117;53.532;49.426;2022-08-21T00:29:19;17.40;66.30
67188;DHT22;54117;53.532;49.426;2022-08-21T00:31:46;17.40;66.20
67188;DHT22;54117;53.532;49.426;2022-08-21T00:34:13;17.40;66.20
67188;DHT22;54117;53.532;49.426;2022-08-21T00:36:40;17.40;66.20
67188;DHT22;54117;53.532;49.426;2022-08-21T00:39:07;17.40;66.30
67188;DHT22;54117;53.532;49.426;2022-08-21T00:41:36;17.30;66.20
67188;DHT22;54117;53.532;49.426;2022-08-21T00:44:04;17.30;66.40
67188;DHT22;54117;53.532;49.426;2022-08-21T00:46:30;17.20;66.60
67188;DHT22;54117;53.532;49.426;2022-08-21T00:48:58;17.20;66.80
67188;DHT22;54117;53.532;49.426;2022-08-21T00:51:28;17.20;66.90
67188;DHT22;54117;53.532;49.426;2022-08-21T00:53:59;17.10;67.10
67188;DHT22;54117;53.532;49.426;2022-08-21T00:56:28;17.10;68.00
67188;DHT22;54117;53.532;49.426;2022-08-21T00:58:56;17.10;67.60
67188;DHT22;54117;53.532;49.426;2022-08-21T01:01:24;17.00;68.30
67188;DHT22;54117;53.532;49.426;2022-08-21T01:03:51;17.10;68.50
67188;DHT22;54117;53.532;49.426;2022-08-21T01:06:17;17.00;68.40
67188;DHT22;54117;53.532;49.426;2022-08-21T01:08:44;17.00;68.70
67188;DHT22;54117;53.532;49.426;2022-08-21T01:11:10;17.00;68.90
67188;DHT22;54117;53.532;49.426;2022-08-21T01:13:37;17.00;68.80
67188;DHT22;54117;53.532;49.426;2022-08-21T01:16:10;17.00;69.00
67188;DHT22;54117;53.532;49.426;2022-08-21T01:18:37;16.90;69.50
67188;DHT22;54117;53.532;49.426;2022-08-21T01:21:15;16.90;69.10
67188;DHT22;54117;53.532;49.426;2022-08-21T01:23:46;16.90;69.30
67188;DHT22;54117;53.532;49.426;2022-08-21T01:26:14;16.80;69.40
67188;DHT22;54117;53.532;49.426;2022-08-21T01:31:24;16.80;69.40
67188;DHT22;54117;53.532;49.426;2022-08-21T01:33:50;16.80;69.20
67188;DHT22;54117;53.532;49.426;2022-08-21T01:36:17;16.80;69.10
67188;DHT22;54117;53.532;49.426;2022-08-21T01:38:43;16.80;69.30
67188;DHT22;54117;53.532;49.426;2022-08-21T01:41:10;16.80;69.50
67188;DHT22;54117;53.532;49.426;2022-08-21T01:43:36;16.80;69.50
67188;DHT22;54117;53.532;49.426;2022-08-21T01:46:03;16.80;69.40
67188;DHT22;54117;53.532;49.426;2022-08-21T01:48:30;16.80;69.50
67188;DHT22;54117;53.532;49.426;2022-08-21T01:50:56;16.80;69.30
67188;DHT22;54117;53.532;49.426;2022-08-21T01:53:22;16.90;69.30
67188;DHT22;54117;53.532;49.426;2022-08-21T01:55:48;16.90;69.20
67188;DHT22;54117;53.532;49.426;2022-08-21T01:58:15;16.90;69.20
67188;DHT22;54117;53.532;49.426;2022-08-21T02:00:41;17.00;69.10
67188;DHT22;54117;53.532;49.426;2022-08-21T02:03:07;17.00;69.10
67188;DHT22;54117;53.532;49.426;2022-08-21T02:05:33;17.00;69.20
67188;DHT22;54117;53.532;49.426;2022-08-21T02:07:59;17.10;69.10
67188;DHT22;54117;53.532;49.426;2022-08-21T02:10:29;17.10;69.00
67188;DHT22;54117;53.532;49.426;2022-08-21T02:12:56;17.10;69.00
67188;DHT22;54117;53.532;49.426;2022-08-21T02:15:23;17.20;69.10
67188;DHT22;54117;53.532;49.426;2022-08-21T02:17:52;17.20;69.20
67188;DHT22;54117;53.532;49.426;2022-08-21T02:20:23;17.20;69.20
67188;DHT22;54117;53.532;49.426;2022-08-21T02:22:51;17.30;68.90
67188;DHT22;54117;53.532;49.426;2022-08-21T02:25:18;17.30;69.40
67188;DHT22;54117;53.532;49.426;2022-08-21T02:27:45;17.40;69.50
67188;DHT22;54117;53.532;49.426;2022-08-21T02:30:17;17.50;69.40
67188;DHT22;54117;53.532;49.426;2022-08-21T02:32:43;17.50;69.50
67188;DHT22;54117;53.532;49.426;2022-08-21T02:35:10;17.60;69.30
67188;DHT22;54117;53.532;49.426;2022-08-21T02:37:55;17.70;69.40
67188;DHT22;54117;53.532;49.426;2022-08-21T02:40:23;17.70;69.70
67188;DHT22;54117;53.532;49.426;2022-08-21T02:42:50;17.80;69.50
67188;DHT22;54117;53.532;49.426;2022-08-21T02:45:17;17.80;69.10
67188;DHT22;54117;53.532;49.426;2022-08-21T02:47:48;17.90;69.70
67188;DHT22;54117;53.532;49.426;2022-08-21T02:50:18;17.90;68.90
67188;DHT22;54117;53.532;49.426;2022-08-21T02:52:45;17.90;68.50
67188;DHT22;54117;53.532;49.426;2022-08-21T02:55:11;18.00;68.60
67188;DHT22;54117;53.532;49.426;2022-08-21T02:57:38;18.10;68.10
67188;DHT22;54117;53.532;49.426;2022-08-21T03:00:05;18.20;68.30
67188;DHT22;54117;53.532;49.426;2022-08-21T03:02:32;18.30;67.90
67188;DHT22;54117;53.532;49.426;2022-08-21T03:04:58;18.40;68.00
67188;DHT22;54117;53.532;49.426;2022-08-21T03:07:24;18.50;68.30
67188;DHT22;54117;53.532;49.426;2022-08-21T03:09:51;18.50;67.70
67188;DHT22;54117;53.532;49.426;2022-08-21T03:12:17;18.60;68.40
67188;DHT22;54117;53.532;49.426;2022-08-21T03:14:43;18.70;67.70
67188;DHT22;54117;53.532;49.426;2022-08-21T03:17:09;18.80;67.00
67188;DHT22;54117;53.532;49.426;2022-08-21T03:19:35;18.90;66.60
67188;DHT22;54117;53.532;49.426;2022-08-21T03:22:01;19.00;66.40
67188;DHT22;54117;53.532;49.426;2022-08-21T03:24:27;19.20;66.10
67188;DHT22;54117;53.532;49.426;2022-08-21T03:26:54;19.30;66.00
67188;DHT22;54117;53.532;49.426;2022-08-21T03:29:20;20.10;65.80
67188;DHT22;54117;53.532;49.426;2022-08-21T03:31:46;21.60;62.70
67188;DHT22;54117;53.532;49.426;2022-08-21T03:34:13;23.30;58.10
67188;DHT22;54117;53.532;49.426;2022-08-21T03:36:39;24.90;54.10
67188;DHT22;54117;53.532;49.426;2022-08-21T03:39:13;26.30;50.80
67188;DHT22;54117;53.532;49.426;2022-08-21T03:41:39;27.50;48.00
67188;DHT22;54117;53.532;49.426;2022-08-21T03:44:06;28.50;45.70
67188;DHT22;54117;53.532;49.426;2022-08-21T03:46:32;29.30;44.30
67188;DHT22;54117;53.532;49.426;2022-08-21T03:48:58;30.20;43.80
67188;DHT22;54117;53.532;49.426;2022-08-21T03:51:26;31.00;41.60
67188;DHT22;54117;53.532;49.426;2022-08-21T03:53:52;31.60;40.20
67188;DHT22;54117;53.532;49.426;2022-08-21T03:56:20;32.20;39.30
67188;DHT22;54117;53.532;49.426;2022-08-21T03:58:46;32.90;38.60
67188;DHT22;54117;53.532;49.426;2022-08-21T04:01:13;33.40;37.80
67188;DHT22;54117;53.532;49.426;2022-08-21T04:03:39;34.00;36.90
67188;DHT22;54117;53.532;49.426;2022-08-21T04:06:06;34.40;36.40
67188;DHT22;54117;53.532;49.426;2022-08-21T04:08:33;34.70;35.60
67188;DHT22;54117;53.532;49.426;2022-08-21T04:11:00;35.10;35.90
67188;DHT22;54117;53.532;49.426;2022-08-21T04:13:27;35.40;34.70
67188;DHT22;54117;53.532;49.426;2022-08-21T04:15:55;35.80;34.60
67188;DHT22;54117;53.532;49.426;2022-08-21T04:18:21;36.10;33.80
67188;DHT22;54117;53.532;49.426;2022-08-21T04:20:50;36.40;33.70
67188;DHT22;54117;53.532;49.426;2022-08-21T04:23:21;36.70;33.30
67188;DHT22;54117;53.532;49.426;2022-08-21T04:25:47;36.90;32.80
67188;DHT22;54117;53.532;49.426;2022-08-21T04:28:13;37.10;32.30
67188;DHT22;54117;53.532;49.426;2022-08-21T04:30:40;37.30;32.40
67188;DHT22;54117;53.532;49.426;2022-08-21T04:33:07;37.40;31.80
67188;DHT22;54117;53.532;49.426;2022-08-21T04:35:34;37.40;32.50
67188;DHT22;54117;53.532;49.426;2022-08-21T04:38:00;37.50;32.00
67188;DHT22;54117;53.532;49.426;2022-08-21T04:40:27;37.60;32.60
67188;DHT22;54117;53.532;49.426;2022-08-21T04:43:09;37.90;32.20
67188;DHT22;54117;53.532;49.426;2022-08-21T04:45:37;38.20;31.40
67188;DHT22;54117;53.532;49.426;2022-08-21T04:48:06;38.50;31.60
67188;DHT22;54117;53.532;49.426;2022-08-21T04:50:41;38.70;30.90
67188;DHT22;54117;53.532;49.426;2022-08-21T04:53:14;38.80;30.40
67188;DHT22;54117;53.532;49.426;2022-08-21T04:55:42;38.90;30.50
67188;DHT22;54117;53.532;49.426;2022-08-21T04:58:23;38.90;30.40
67188;DHT22;54117;53.532;49.426;2022-08-21T05:01:04;38.90;30.30
67188;DHT22;54117;53.532;49.426;2022-08-21T05:07:34;39.20;30.00
67188;DHT22;54117;53.532;49.426;2022-08-21T05:10:05;39.30;30.10
67188;DHT22;54117;53.532;49.426;2022-08-21T05:12:42;39.40;30.00
67188;DHT22;54117;53.532;49.426;2022-08-21T05:15:11;39.50;30.00
67188;DHT22;54117;53.532;49.426;2022-08-21T05:17:39;39.70;29.80
67188;DHT22;54117;53.532;49.426;2022-08-21T05:20:05;39.80;30.00
67188;DHT22;54117;53.532;49.426;2022-08-21T05:22:35;40.00;29.80
67188;DHT22;54117;53.532;49.426;2022-08-21T05:25:05;40.10;31.00
67188;DHT22;54117;53.532;49.426;2022-08-21T05:27:32;40.50;30.10
67188;DHT22;54117;53.532;49.426;2022-08-21T05:29:58;40.70;29.80
67188;DHT22;54117;53.532;49.426;2022-08-21T05:32:25;40.90;29.70
67188;DHT22;54117;53.532;49.426;2022-08-21T05:34:53;41.10;29.70
67188;DHT22;54117;53.532;49.426;2022-08-21T05:37:21;41.20;29.40
67188;DHT22;54117;53.532;49.426;2022-08-21T05:39:47;41.30;29.30
67188;DHT22;54117;53.532;49.426;2022-08-21T05:42:13;41.30;29.70
67188;DHT22;54117;53.532;49.426;2022-08-21T05:44:39;41.30;29.50
67188;DHT22;54117;53.532;49.426;2022-08-21T05:47:41;41.30;29.30
67188;DHT22;54117;53.532;49.426;2022-08-21T05:50:30;41.30;29.60
67188;DHT22;54117;53.532;49.426;2022-08-21T05:53:00;41.50;30.30
67188;DHT22;54117;53.532;49.426;2022-08-21T05:55:32;41.50;29.30
67188;DHT22;54117;53.532;49.426;2022-08-21T05:57:58;41.60;29.70
67188;DHT22;54117;53.532;49.426;2022-08-21T06:00:35;41.80;29.30
67188;DHT22;54117;53.532;49.426;2022-08-21T06:03:18;42.00;29.00
67188;DHT22;54117;53.532;49.426;2022-08-21T06:06:25;42.20;29.30
67188;DHT22;54117;53.532;49.426;2022-08-21T06:09:28;42.20;29.20
67188;DHT22;54117;53.532;49.426;2022-08-21T06:12:17;42.10;28.80
67188;DHT22;54117;53.532;49.426;2022-08-21T06:14:47;42.00;29.00
67188;DHT22;54117;53.532;49.426;2022-08-21T06:19:57;41.70;29.60
67188;DHT22;54117;53.532;49.426;2022-08-21T06:22:23;41.80;29.50
67188;DHT22;54117;53.532;49.426;2022-08-21T06:24:55;42.00;29.10
67188;DHT22;54117;53.532;49.426;2022-08-21T06:27:28;42.00;29.20
67188;DHT22;54117;53.532;49.426;2022-08-21T06:29:55;42.10;29.00
67188;DHT22;54117;53.532;49.426;2022-08-21T06:35:26;41.90;28.90
67188;DHT22;54117;53.532;49.426;2022-08-21T06:38:32;41.60;28.50
67188;DHT22;54117;53.532;49.426;2022-08-21T06:41:23;41.20;28.50
67188;DHT22;54117;53.532;49.426;2022-08-21T06:43:53;41.10;28.80
67188;DHT22;54117;53.532;49.426;2022-08-21T06:46:32;40.60;28.90
67188;DHT22;54117;53.532;49.426;2022-08-21T06:52:24;40.50;29.10
67188;DHT22;54117;53.532;49.426;2022-08-21T07:17:36;38.40;30.20
67188;DHT22;54117;53.532;49.426;2022-08-21T07:45:21;34.10;33.70
67188;DHT22;54117;53.532;49.426;2022-08-21T07:48:02;33.50;34.70
67188;DHT22;54117;53.532;49.426;2022-08-21T07:59:35;32.10;36.50
67188;DHT22;54117;53.532;49.426;2022-08-21T08:02:05;31.80;36.80
67188;DHT22;54117;53.532;49.426;2022-08-21T08:04:34;31.60;37.20
67188;DHT22;54117;53.532;49.426;2022-08-21T08:07:14;31.50;37.40
67188;DHT22;54117;53.532;49.426;2022-08-21T08:13:22;31.10;37.70
67188;DHT22;54117;53.532;49.426;2022-08-21T08:15:50;30.90;37.80
67188;DHT22;54117;53.532;49.426;2022-08-21T08:18:19;30.90;38.10
67188;DHT22;54117;53.532;49.426;2022-08-21T08:20:45;30.80;38.40
67188;DHT22;54117;53.532;49.426;2022-08-21T08:23:13;30.80;38.40
67188;DHT22;54117;53.532;49.426;2022-08-21T08:25:40;30.70;38.30
67188;DHT22;54117;53.532;49.426;2022-08-21T08:28:07;30.60;38.60
67188;DHT22;54117;53.532;49.426;2022-08-21T08:30:34;30.60;38.60
67188;DHT22;54117;53.532;49.426;2022-08-21T08:33:01;30.50;39.30
67188;DHT22;54117;53.532;49.426;2022-08-21T08:35:34;30.50;38.90
67188;DHT22;54117;53.532;49.426;2022-08-21T08:38:00;30.50;38.90
67188;DHT22;54117;53.532;49.426;2022-08-21T08:40:39;30.50;39.10
67188;DHT22;54117;53.532;49.426;2022-08-21T08:43:08;30.50;38.80
67188;DHT22;54117;53.532;49.426;2022-08-21T08:45:37;30.40;38.30
67188;DHT22;54117;53.532;49.426;2022-08-21T08:48:16;30.30;38.30
67188;DHT22;54117;53.532;49.426;2022-08-21T08:57:46;30.00;38.40
67188;DHT22;54117;53.532;49.426;2022-08-21T09:00:15;30.00;38.90
67188;DHT22;54117;53.532;49.426;2022-08-21T09:02:44;30.00;38.80
67188;DHT22;54117;53.532;49.426;2022-08-21T09:05:40;30.00;39.40
67188;DHT22;54117;53.532;49.426;2022-08-21T09:08:29;30.00;39.30
67188;DHT22;54117;53.532;49.426;2022-08-21T09:11:12;30.00;39.40
67188;DHT22;54117;53.532;49.426;2022-08-21T09:17:04;30.00;38.40
67188;DHT22;54117;53.532;49.426;2022-08-21T09:23:05;30.00;38.90
67188;DHT22;54117;53.532;49.426;2022-08-21T09:28:36;30.00;39.10
67188;DHT22;54117;53.532;49.426;2022-08-21T09:33:48;29.90;38.90
67188;DHT22;54117;53.532;49.426;2022-08-21T09:45:46;29.80;39.80
67188;DHT22;54117;53.532;49.426;2022-08-21T09:48:22;29.80;39.90
67188;DHT22;54117;53.532;49.426;2022-08-21T09:51:06;29.80;39.90
67188;DHT22;54117;53.532;49.426;2022-08-21T09:53:37;29.80;40.10
67188;DHT22;54117;53.532;49.426;2022-08-21T09:56:21;29.90;39.50
67188;DHT22;54117;53.532;49.426;2022-08-21T09:59:15;29.90;39.70
67188;DHT22;54117;53.532;49.426;2022-08-21T10:01:54;29.90;39.90
67188;DHT22;54117;53.532;49.426;2022-08-21T10:04:36;29.90;39.30
67188;DHT22;54117;53.532;49.426;2022-08-21T10:07:10;29.90;39.70
67188;DHT22;54117;53.532;49.426;2022-08-21T10:09:43;29.90;39.50
67188;DHT22;54117;53.532;49.426;2022-08-21T10:15:39;29.90;39.30
67188;DHT22;54117;53.532;49.426;2022-08-21T10:18:56;29.90;39.70
67188;DHT22;54117;53.532;49.426;2022-08-21T10:22:18;30.00;40.30
67188;DHT22;54117;53.532;49.426;2022-08-21T10:24:46;30.00;39.70
67188;DHT22;54117;53.532;49.426;2022-08-21T10:30:43;30.00;39.80
67188;DHT22;54117;53.532;49.426;2022-08-21T10:51:44;30.00;39.80
67188;DHT22;54117;53.532;49.426;2022-08-21T11:02:33;30.10;39.30
67188;DHT22;54117;53.532;49.426;2022-08-21T11:08:42;30.10;39.50
67188;DHT22;54117;53.532;49.426;2022-08-21T11:14:00;30.20;39.10
67188;DHT22;54117;53.532;49.426;2022-08-21T11:17:00;30.20;39.00
67188;DHT22;54117;53.532;49.426;2022-08-21T11:20:02;30.20;38.70
67188;DHT22;54117;53.532;49.426;2022-08-21T11:22:45;30.20;39.10
67188;DHT22;54117;53.532;49.426;2022-08-21T11:28:30;30.30;38.60
67188;DHT22;54117;53.532;49.426;2022-08-21T11:37:06;30.30;37.90
67188;DHT22;54117;53.532;49.426;2022-08-21T11:45:51;30.30;37.80
67188;DHT22;54117;53.532;49.426;2022-08-21T11:48:45;30.30;37.80
67188;DHT22;54117;53.532;49.426;2022-08-21T11:51:25;30.40;38.00
67188;DHT22;54117;53.532;49.426;2022-08-21T11:56:36;30.40;38.00
67188;DHT22;54117;53.532;49.426;2022-08-21T11:59:23;30.40;37.90
67188;DHT22;54117;53.532;49.426;2022-08-21T12:01:52;30.50;37.50
67188;DHT22;54117;53.532;49.426;2022-08-21T12:04:34;30.50;37.00
67188;DHT22;54117;53.532;49.426;2022-08-21T12:07:16;30.50;36.60
67188;DHT22;54117;53.532;49.426;2022-08-21T12:09:56;30.50;36.70
67188;DHT22;54117;53.532;49.426;2022-08-21T12:12:38;30.50;37.20
67188;DHT22;54117;53.532;49.426;2022-08-21T12:17:50;30.50;37.30
67188;DHT22;54117;53.532;49.426;2022-08-21T12:25:43;30.50;38.00
67188;DHT22;54117;53.532;49.426;2022-08-21T12:28:13;30.40;37.80
67188;DHT22;54117;53.532;49.426;2022-08-21T12:30:44;30.50;37.70
67188;DHT22;54117;53.532;49.426;2022-08-21T12:33:34;30.50;37.30
67188;DHT22;54117;53.532;49.426;2022-08-21T12:36:11;30.50;36.80
67188;DHT22;54117;53.532;49.426;2022-08-21T12:39:04;30.50;36.50
67188;DHT22;54117;53.532;49.426;2022-08-21T12:41:45;30.40;36.40
67188;DHT22;54117;53.532;49.426;2022-08-21T12:44:15;30.40;36.20
67188;DHT22;54117;53.532;49.426;2022-08-21T12:46:54;30.40;36.10
67188;DHT22;54117;53.532;49.426;2022-08-21T12:49:35;30.40;35.40
67188;DHT22;54117;53.532;49.426;2022-08-21T12:52:14;30.40;35.60
67188;DHT22;54117;53.532;49.426;2022-08-21T12:54:46;30.40;35.30
67188;DHT22;54117;53.532;49.426;2022-08-21T12:57:25;30.40;35.30
67188;DHT22;54117;53.532;49.426;2022-08-21T12:59:54;30.40;35.40
67188;DHT22;54117;53.532;49.426;2022-08-21T13:02:28;30.40;34.90
67188;DHT22;54117;53.532;49.426;2022-08-21T13:04:56;30.40;35.50
67188;DHT22;54117;53.532;49.426;2022-08-21T13:07:27;30.40;35.30
67188;DHT22;54117;53.532;49.426;2022-08-21T13:18:58;30.30;35.00
67188;DHT22;54117;53.532;49.426;2022-08-21T13:21:41;30.30;35.20
67188;DHT22;54117;53.532;49.426;2022-08-21T13:24:29;30.30;35.00
67188;DHT22;54117;53.532;49.426;2022-08-21T13:26:56;30.20;34.90
67188;DHT22;54117;53.532;49.426;2022-08-21T13:29:28;30.30;35.30
67188;DHT22;54117;53.532;49.426;2022-08-21T13:32:02;30.20;35.60
67188;DHT22;54117;53.532;49.426;2022-08-21T13:34:33;30.20;35.50
67188;DHT22;54117;53.532;49.426;2022-08-21T13:37:06;30.20;35.80
67188;DHT22;54117;53.532;49.426;2022-08-21T13:39:33;30.20;36.20
67188;DHT22;54117;53.532;49.426;2022-08-21T13:42:02;30.20;35.70
67188;DHT22;54117;53.532;49.426;2022-08-21T13:44:39;30.10;35.90
67188;DHT22;54117;53.532;49.426;2022-08-21T13:47:09;30.10;36.30
67188;DHT22;54117;53.532;49.426;2022-08-21T13:49:47;30.10;36.50
67188;DHT22;54117;53.532;49.426;2022-08-21T13:55:18;30.00;35.80
67188;DHT22;54117;53.532;49.426;2022-08-21T13:58:01;30.00;36.00
67188;DHT22;54117;53.532;49.426;2022-08-21T14:00:31;30.00;36.30
67188;DHT22;54117;53.532;49.426;2022-08-21T14:03:08;29.90;36.40
67188;DHT22;54117;53.532;49.426;2022-08-21T14:05:44;29.90;36.30
67188;DHT22;54117;53.532;49.426;2022-08-21T14:08:26;29.80;37.10
67188;DHT22;54117;53.532;49.426;2022-08-21T14:10:57;29.80;36.20
67188;DHT22;54117;53.532;49.426;2022-08-21T14:16:18;29.80;36.50
67188;DHT22;54117;53.532;49.426;2022-08-21T14:19:21;29.70;36.60
67188;DHT22;54117;53.532;49.426;2022-08-21T14:21:52;29.70;36.80
67188;DHT22;54117;53.532;49.426;2022-08-21T14:26:56;29.60;36.30
67188;DHT22;54117;53.532;49.426;2022-08-21T14:29:26;29.60;36.50
67188;DHT22;54117;53.532;49.426;2022-08-21T14:31:58;29.60;36.60
67188;DHT22;54117;53.532;49.426;2022-08-21T14:34:28;29.50;36.60
67188;DHT22;54117;53.532;49.426;2022-08-21T14:36:55;29.50;36.50
67188;DHT22;54117;53.532;49.426;2022-08-21T14:39:24;29.50;36.50
67188;DHT22;54117;53.532;49.426;2022-08-21T14:41:52;29.40;36.20
67188;DHT22;54117;53.532;49.426;2022-08-21T14:44:28;29.40;36.70
67188;DHT22;54117;53.532;49.426;2022-08-21T14:46:59;29.30;36.90
67188;DHT22;54117;53.532;49.426;2022-08-21T14:49:48;29.30;36.90
67188;DHT22;54117;53.532;49.426;2022-08-21T14:52:27;29.20;36.70
67188;DHT22;54117;53.532;49.426;2022-08-21T14:54:54;29.10;36.80
67188;DHT22;54117;53.532;49.426;2022-08-21T14:57:20;29.10;36.90
67188;DHT22;54117;53.532;49.426;2022-08-21T14:59:47;29.10;37.10
67188;DHT22;54117;53.532;49.426;2022-08-21T15:02:18;29.00;37.10
67188;DHT22;54117;53.532;49.426;2022-08-21T15:04:44;29.00;37.20
67188;DHT22;54117;53.532;49.426;2022-08-21T15:07:18;29.00;38.00
67188;DHT22;54117;53.532;49.426;2022-08-21T15:10:11;28.90;37.80
67188;DHT22;54117;53.532;49.426;2022-08-21T15:12:41;28.80;37.70
67188;DHT22;54117;53.532;49.426;2022-08-21T15:15:08;28.80;38.50
67188;DHT22;54117;53.532;49.426;2022-08-21T15:17:35;28.70;38.20
67188;DHT22;54117;53.532;49.426;2022-08-21T15:20:03;28.70;38.30
67188;DHT22;54117;53.532;49.426;2022-08-21T15:22:30;28.70;38.50
67188;DHT22;54117;53.532;49.426;2022-08-21T15:24:56;28.60;38.50
67188;DHT22;54117;53.532;49.426;2022-08-21T15:27:23;28.50;38.70
67188;DHT22;54117;53.532;49.426;2022-08-21T15:29:51;28.40;38.80
67188;DHT22;54117;53.532;49.426;2022-08-21T15:32:29;28.30;39.00
67188;DHT22;54117;53.532;49.426;2022-08-21T15:35:01;28.30;39.20
67188;DHT22;54117;53.532;49.426;2022-08-21T15:37:28;28.20;39.20
67188;DHT22;54117;53.532;49.426;2022-08-21T15:39:55;28.10;39.20
67188;DHT22;54117;53.532;49.426;2022-08-21T15:42:24;28.00;40.30
67188;DHT22;54117;53.532;49.426;2022-08-21T15:44:54;27.80;40.10
67188;DHT22;54117;53.532;49.426;2022-08-21T15:47:25;27.70;40.10
67188;DHT22;54117;53.532;49.426;2022-08-21T15:49:53;27.60;41.20
67188;DHT22;54117;53.532;49.426;2022-08-21T15:52:21;27.60;40.80
67188;DHT22;54117;53.532;49.426;2022-08-21T15:54:49;27.50;41.20
67188;DHT22;54117;53.532;49.426;2022-08-21T15:57:20;27.40;41.40
67188;DHT22;54117;53.532;49.426;2022-08-21T15:59:58;27.30;41.40
67188;DHT22;54117;53.532;49.426;2022-08-21T16:02:32;27.20;41.70
67188;DHT22;54117;53.532;49.426;2022-08-21T16:04:59;27.10;41.90
67188;DHT22;54117;53.532;49.426;2022-08-21T16:07:26;27.10;42.00
67188;DHT22;54117;53.532;49.426;2022-08-21T16:09:53;27.00;42.30
67188;DHT22;54117;53.532;49.426;2022-08-21T16:12:29;27.00;42.40
67188;DHT22;54117;53.532;49.426;2022-08-21T16:15:00;26.90;42.40
67188;DHT22;54117;53.532;49.426;2022-08-21T16:17:33;26.90;43.30
67188;DHT22;54117;53.532;49.426;2022-08-21T16:20:04;26.70;43.50
67188;DHT22;54117;53.532;49.426;2022-08-21T16:22:33;26.60;43.50
67188;DHT22;54117;53.532;49.426;2022-08-21T16:25:04;26.50;43.30
67188;DHT22;54117;53.532;49.426;2022-08-21T16:27:32;26.30;44.10
67188;DHT22;54117;53.532;49.426;2022-08-21T16:29:59;26.30;44.60
67188;DHT22;54117;53.532;49.426;2022-08-21T16:32:29;26.10;45.00
67188;DHT22;54117;53.532;49.426;2022-08-21T16:35:00;26.00;45.00
67188;DHT22;54117;53.532;49.426;2022-08-21T16:37:30;26.00;45.30
67188;DHT22;54117;53.532;49.426;2022-08-21T16:39:58;25.90;45.80
67188;DHT22;54117;53.532;49.426;2022-08-21T16:42:25;25.80;46.00
67188;DHT22;54117;53.532;49.426;2022-08-21T16:44:55;25.70;46.30
67188;DHT22;54117;53.532;49.426;2022-08-21T16:47:22;25.60;46.40
67188;DHT22;54117;53.532;49.426;2022-08-21T16:49:48;25.70;46.60
67188;DHT22;54117;53.532;49.426;2022-08-21T16:52:16;25.80;46.70
67188;DHT22;54117;53.532;49.426;2022-08-21T16:54:43;25.80;46.80
67188;DHT22;54117;53.532;49.426;2022-08-21T16:57:09;25.70;46.90
67188;DHT22;54117;53.532;49.426;2022-08-21T16:59:37;25.60;47.50
67188;DHT22;54117;53.532;49.426;2022-08-21T17:02:04;25.50;48.20
67188;DHT22;54117;53.532;49.426;2022-08-21T17:04:31;25.30;48.60
67188;DHT22;54117;53.532;49.426;2022-08-21T17:06:58;25.20;49.00
67188;DHT22;54117;53.532;49.426;2022-08-21T17:09:24;25.10;49.30
67188;DHT22;54117;53.532;49.426;2022-08-21T17:11:50;24.90;49.90
67188;DHT22;54117;53.532;49.426;2022-08-21T17:14:22;24.80;50.50
67188;DHT22;54117;53.532;49.426;2022-08-21T17:16:51;24.70;51.00
67188;DHT22;54117;53.532;49.426;2022-08-21T17:19:18;24.50;51.30
67188;DHT22;54117;53.532;49.426;2022-08-21T17:21:45;24.50;51.90
67188;DHT22;54117;53.532;49.426;2022-08-21T17:24:12;24.30;51.90
67188;DHT22;54117;53.532;49.426;2022-08-21T17:26:41;24.30;52.20
67188;DHT22;54117;53.532;49.426;2022-08-21T17:29:09;24.20;52.20
67188;DHT22;54117;53.532;49.426;2022-08-21T17:31:39;24.20;52.80
67188;DHT22;54117;53.532;49.426;2022-08-21T17:34:06;24.20;53.00
67188;DHT22;54117;53.532;49.426;2022-08-21T17:36:32;24.10;52.60
67188;DHT22;54117;53.532;49.426;2022-08-21T17:38:58;24.00;52.90
67188;DHT22;54117;53.532;49.426;2022-08-21T17:41:25;24.00;53.10
67188;DHT22;54117;53.532;49.426;2022-08-21T17:43:52;23.90;53.50
67188;DHT22;54117;53.532;49.426;2022-08-21T17:46:26;23.80;53.90
67188;DHT22;54117;53.532;49.426;2022-08-21T17:48:53;23.70;54.50
67188;DHT22;54117;53.532;49.426;2022-08-21T17:51:19;23.70;54.20
67188;DHT22;54117;53.532;49.426;2022-08-21T17:53:45;23.70;53.80
67188;DHT22;54117;53.532;49.426;2022-08-21T17:56:14;23.70;53.60
67188;DHT22;54117;53.532;49.426;2022-08-21T17:58:49;23.70;53.60
67188;DHT22;54117;53.532;49.426;2022-08-21T18:01:17;23.70;53.30
67188;DHT22;54117;53.532;49.426;2022-08-21T18:03:44;23.70;53.20
67188;DHT22;54117;53.532;49.426;2022-08-21T18:06:14;23.70;53.40
67188;DHT22;54117;53.532;49.426;2022-08-21T18:08:41;23.70;53.50
67188;DHT22;54117;53.532;49.426;2022-08-21T18:11:10;23.70;53.60
67188;DHT22;54117;53.532;49.426;2022-08-21T18:13:39;23.60;53.70
67188;DHT22;54117;53.532;49.426;2022-08-21T18:16:07;23.60;53.90
67188;DHT22;54117;53.532;49.426;2022-08-21T18:18:40;23.50;54.20
67188;DHT22;54117;53.532;49.426;2022-08-21T18:21:07;23.40;54.70
67188;DHT22;54117;53.532;49.426;2022-08-21T18:23:35;23.40;54.90
67188;DHT22;54117;53.532;49.426;2022-08-21T18:26:02;23.30;55.50
67188;DHT22;54117;53.532;49.426;2022-08-21T18:28:30;23.20;55.70
67188;DHT22;54117;53.532;49.426;2022-08-21T18:30:57;23.10;56.30
67188;DHT22;54117;53.532;49.426;2022-08-21T18:33:24;23.10;56.70
67188;DHT22;54117;53.532;49.426;2022-08-21T18:35:52;23.00;56.50
67188;DHT22;54117;53.532;49.426;2022-08-21T18:38:18;22.90;56.70
67188;DHT22;54117;53.532;49.426;2022-08-21T18:40:49;22.90;56.70
67188;DHT22;54117;53.532;49.426;2022-08-21T18:43:16;22.80;56.90
67188;DHT22;54117;53.532;49.426;2022-08-21T18:45:43;22.80;57.10
67188;DHT22;54117;53.532;49.426;2022-08-21T18:48:12;22.70;57.30
67188;DHT22;54117;53.532;49.426;2022-08-21T18:50:41;22.70;57.60